Agios Georgios I — SX9857 — position and weather

sailwx.info

Track history (hours):
 
Tides and Currents Weather Stations Pressure Air Temp Water Temp Dewpoint Dewpoint Depression Visibility Wind Speed Wind Dir Waves Ship Positions

Agios Georgios I

Last reported at 2015-Jan-27 16:33 UTC. Time now 2015-Jan-27 23:02 UTC.
Position N 37°39' E 023°44'.

Length 59 m; draft 5 m.

Type: Ship (hazmat cat B). MMSI: 239912000.

Date/timePositionNaut miles runAvg speedWind from/ knotsBaromVisibWave heightAir tempDewpointWater temp
2015-Jan-27 16:33N 37°39' E 023°44'9 8.6
2015-Jan-27 15:33N 37°47' E 023°38'9 8.8
2015-Jan-27 14:33N 37°55' E 023°35'2 2.4
2015-Jan-27 13:33N 37°57' E 023°35'0 0.0
2015-Jan-27 12:33N 37°57' E 023°35'0 0.0
2015-Jan-27 11:33N 37°57' E 023°35'0 0.0
2015-Jan-27 10:33N 37°57' E 023°35'0 0.0
2015-Jan-27 09:33N 37°57' E 023°35'0 0.0
2015-Jan-27 08:33N 37°57' E 023°35'0 0.0
2015-Jan-27 07:33N 37°57' E 023°35'0 0.0
2015-Jan-27 06:33N 37°57' E 023°35'0 0.1
2015-Jan-27 05:33N 37°57' E 023°35'4 4.1
2015-Jan-27 04:33N 37°54' E 023°37'7 7.3
2015-Jan-27 03:34N 37°47' E 023°41'8 7.8
2015-Jan-27 02:33N 37°40' E 023°46'47 8.7
2015-Jan-26 21:11N 37°32' E 024°44'6 8.8
2015-Jan-26 20:32N 37°31' E 024°51'7 7.3
2015-Jan-26 19:33N 37°27' E 024°58'2 1.6
2015-Jan-26 18:33N 37°26' E 024°56'0 0.0
2015-Jan-26 17:32N 37°26' E 024°56'0 0.0
2015-Jan-26 16:32N 37°26' E 024°56'0 0.0
2015-Jan-26 15:30N 37°26' E 024°56'0 0.0
2015-Jan-26 14:33N 37°26' E 024°56'0 0.0
2015-Jan-26 13:31N 37°26' E 024°56'0 0.0
2015-Jan-26 12:32N 37°26' E 024°56'0 0.0
2015-Jan-26 11:34N 37°26' E 024°56'0 0.0
2015-Jan-26 10:25N 37°26' E 024°56'0 0.0
2015-Jan-26 09:32N 37°26' E 024°56'0 0.0
2015-Jan-26 08:31N 37°26' E 024°56'0 0.0
2015-Jan-26 07:29N 37°26' E 024°56'0 0.0
2015-Jan-26 06:33N 37°26' E 024°56'0 0.0
2015-Jan-26 05:24N 37°26' E 024°56'0 0.0
2015-Jan-26 04:24N 37°26' E 024°56'0 0.0
2015-Jan-26 03:32N 37°26' E 024°56'0 0.0
2015-Jan-26 02:33N 37°26' E 024°56'0 0.0
2015-Jan-26 01:29N 37°26' E 024°56'0 0.0
2015-Jan-26 00:32N 37°26' E 024°56'0 0.0
2015-Jan-25 23:30N 37°26' E 024°56'0 0.0
2015-Jan-25 22:30N 37°26' E 024°56'0 0.0
2015-Jan-25 21:33N 37°26' E 024°56'0 0.0
2015-Jan-25 20:32N 37°26' E 024°56'7 6.7
2015-Jan-25 19:33N 37°32' E 024°56'  
2015-Jan-22 18:26N 39°29' E 024°14'  
2015-Jan-18 17:16N 37°38' E 025°46'6 8.4
2015-Jan-18 16:33N 37°37' E 025°39'9 8.9
2015-Jan-18 15:33N 37°34' E 025°28'10 9.7
2015-Jan-18 14:33N 37°32' E 025°16'5 5.2
2015-Jan-18 13:33N 37°32' E 025°09'0 0.0
2015-Jan-18 12:33N 37°32' E 025°09'0 0.0
2015-Jan-18 11:33N 37°32' E 025°09'2 1.5
2015-Jan-18 10:33N 37°32' E 025°08'9 9.3
2015-Jan-18 09:33N 37°26' E 024°58'1 1.3
2015-Jan-18 08:33N 37°26' E 024°56'0 0.0
2015-Jan-18 07:32N 37°26' E 024°56'0 0.0
2015-Jan-18 06:32N 37°26' E 024°56'0 0.0
2015-Jan-18 05:32N 37°26' E 024°56'0 0.0
2015-Jan-18 04:33N 37°26' E 024°56'0 0.0
2015-Jan-18 03:15N 37°26' E 024°56'0 0.0
2015-Jan-18 02:25N 37°26' E 024°56'0 0.0
2015-Jan-18 01:32N 37°26' E 024°56'0 0.0
2015-Jan-18 00:33N 37°26' E 024°56'0 0.0
2015-Jan-17 23:27N 37°26' E 024°56'0 0.0
2015-Jan-17 22:32N 37°26' E 024°56'0 0.0
2015-Jan-17 21:26N 37°26' E 024°56'0 0.0
2015-Jan-17 20:33N 37°26' E 024°56'0 0.0
2015-Jan-17 19:31N 37°26' E 024°56'0 0.0
2015-Jan-17 18:27N 37°26' E 024°56'0 0.0
2015-Jan-17 17:33N 37°26' E 024°56'  
Track history (hours):
 
Tides and Currents Weather Stations Pressure Air Temp Water Temp Dewpoint Dewpoint Depression Visibility Wind Speed Wind Dir Waves Ship Positions

Agios Georgios I

Last reported at 2015-Jan-27 16:33 UTC. Time now 2015-Jan-27 23:02 UTC.
Position N 37°39' E 023°44'.

Length 59 m; draft 5 m.

Type: Ship (hazmat cat B). MMSI: 239912000.

Date/timePositionNaut miles runAvg speedWind from/ knotsBaromVisibWave heightAir tempDewpointWater temp
2015-Jan-27 16:33N 37°39' E 023°44'9 8.6
2015-Jan-27 15:33N 37°47' E 023°38'9 8.8
2015-Jan-27 14:33N 37°55' E 023°35'2 2.4
2015-Jan-27 13:33N 37°57' E 023°35'0 0.0
2015-Jan-27 12:33N 37°57' E 023°35'0 0.0
2015-Jan-27 11:33N 37°57' E 023°35'0 0.0
2015-Jan-27 10:33N 37°57' E 023°35'0 0.0
2015-Jan-27 09:33N 37°57' E 023°35'0 0.0
2015-Jan-27 08:33N 37°57' E 023°35'0 0.0
2015-Jan-27 07:33N 37°57' E 023°35'0 0.0
2015-Jan-27 06:33N 37°57' E 023°35'0 0.1
2015-Jan-27 05:33N 37°57' E 023°35'4 4.1
2015-Jan-27 04:33N 37°54' E 023°37'7 7.3
2015-Jan-27 03:34N 37°47' E 023°41'8 7.8
2015-Jan-27 02:33N 37°40' E 023°46'47 8.7
2015-Jan-26 21:11N 37°32' E 024°44'6 8.8
2015-Jan-26 20:32N 37°31' E 024°51'7 7.3
2015-Jan-26 19:33N 37°27' E 024°58'2 1.6
2015-Jan-26 18:33N 37°26' E 024°56'0 0.0
2015-Jan-26 17:32N 37°26' E 024°56'0 0.0
2015-Jan-26 16:32N 37°26' E 024°56'0 0.0
2015-Jan-26 15:30N 37°26' E 024°56'0 0.0
2015-Jan-26 14:33N 37°26' E 024°56'0 0.0
2015-Jan-26 13:31N 37°26' E 024°56'0 0.0
2015-Jan-26 12:32N 37°26' E 024°56'0 0.0
2015-Jan-26 11:34N 37°26' E 024°56'0 0.0
2015-Jan-26 10:25N 37°26' E 024°56'0 0.0
2015-Jan-26 09:32N 37°26' E 024°56'0 0.0
2015-Jan-26 08:31N 37°26' E 024°56'0 0.0
2015-Jan-26 07:29N 37°26' E 024°56'0 0.0
2015-Jan-26 06:33N 37°26' E 024°56'0 0.0
2015-Jan-26 05:24N 37°26' E 024°56'0 0.0
2015-Jan-26 04:24N 37°26' E 024°56'0 0.0
2015-Jan-26 03:32N 37°26' E 024°56'0 0.0
2015-Jan-26 02:33N 37°26' E 024°56'0 0.0
2015-Jan-26 01:29N 37°26' E 024°56'0 0.0
2015-Jan-26 00:32N 37°26' E 024°56'0 0.0
2015-Jan-25 23:30N 37°26' E 024°56'0 0.0
2015-Jan-25 22:30N 37°26' E 024°56'0 0.0
2015-Jan-25 21:33N 37°26' E 024°56'0 0.0
2015-Jan-25 20:32N 37°26' E 024°56'7 6.7
2015-Jan-25 19:33N 37°32' E 024°56'  
2015-Jan-22 18:26N 39°29' E 024°14'  
2015-Jan-18 17:16N 37°38' E 025°46'6 8.4
2015-Jan-18 16:33N 37°37' E 025°39'9 8.9
2015-Jan-18 15:33N 37°34' E 025°28'10 9.7
2015-Jan-18 14:33N 37°32' E 025°16'5 5.2
2015-Jan-18 13:33N 37°32' E 025°09'0 0.0
2015-Jan-18 12:33N 37°32' E 025°09'0 0.0
2015-Jan-18 11:33N 37°32' E 025°09'2 1.5
2015-Jan-18 10:33N 37°32' E 025°08'9 9.3
2015-Jan-18 09:33N 37°26' E 024°58'1 1.3
2015-Jan-18 08:33N 37°26' E 024°56'0 0.0
2015-Jan-18 07:32N 37°26' E 024°56'0 0.0
2015-Jan-18 06:32N 37°26' E 024°56'0 0.0
2015-Jan-18 05:32N 37°26' E 024°56'0 0.0
2015-Jan-18 04:33N 37°26' E 024°56'0 0.0
2015-Jan-18 03:15N 37°26' E 024°56'0 0.0
2015-Jan-18 02:25N 37°26' E 024°56'0 0.0
2015-Jan-18 01:32N 37°26' E 024°56'0 0.0
2015-Jan-18 00:33N 37°26' E 024°56'0 0.0
2015-Jan-17 23:27N 37°26' E 024°56'0 0.0
2015-Jan-17 22:32N 37°26' E 024°56'0 0.0
2015-Jan-17 21:26N 37°26' E 024°56'0 0.0
2015-Jan-17 20:33N 37°26' E 024°56'0 0.0
2015-Jan-17 19:31N 37°26' E 024°56'0 0.0
2015-Jan-17 18:27N 37°26' E 024°56'0 0.0
2015-Jan-17 17:33N 37°26' E 024°56'  

Dump ship's entire track history